sensor_id;sensor_type;location;lat;lon;timestamp;pressure;altitude;pressure_sealevel;temperature;humidity
8717;BME280;4395;48.554;8.820;2023-04-19T00:00:29;96359.47;;;9.64;100.00
8717;BME280;4395;48.554;8.820;2023-04-19T00:02:32;96348.63;;;9.59;100.00
8717;BME280;4395;48.554;8.820;2023-04-19T00:04:36;96315.97;;;9.27;100.00
8717;BME280;4395;48.554;8.820;2023-04-19T00:06:39;96374.03;;;9.68;100.00
8717;BME280;4395;48.554;8.820;2023-04-19T00:08:42;96357.38;;;9.66;100.00
8717;BME280;4395;48.554;8.820;2023-04-19T00:10:47;96085.38;;;7.93;100.00
8717;BME280;4395;48.554;8.820;2023-04-19T00:12:49;96348.97;;;9.51;100.00
8717;BME280;4395;48.554;8.820;2023-04-19T00:14:52;96343.03;;;9.49;100.00
8717;BME280;4395;48.554;8.820;2023-04-19T00:16:55;96250.34;;;8.83;100.00
8717;BME280;4395;48.554;8.820;2023-04-19T00:18:58;96205.50;;;8.55;100.00
8717;BME280;4395;48.554;8.820;2023-04-19T00:21:03;96349.78;;;9.40;100.00
8717;BME280;4395;48.554;8.820;2023-04-19T00:23:06;96350.13;;;9.55;100.00
8717;BME280;4395;48.554;8.820;2023-04-19T00:25:09;96303.28;;;8.99;100.00
8717;BME280;4395;48.554;8.820;2023-04-19T00:27:13;96347.47;;;9.55;100.00
8717;BME280;4395;48.554;8.820;2023-04-19T00:29:16;96350.03;;;9.50;100.00
8717;BME280;4395;48.554;8.820;2023-04-19T00:31:18;96294.19;;;9.12;100.00
8717;BME280;4395;48.554;8.820;2023-04-19T00:33:21;96347.22;;;9.56;100.00
8717;BME280;4395;48.554;8.820;2023-04-19T00:35:24;96273.91;;;9.16;100.00
8717;BME280;4395;48.554;8.820;2023-04-19T00:37:27;96075.47;;;7.82;100.00
8717;BME280;4395;48.554;8.820;2023-04-19T00:39:30;96343.59;;;9.62;100.00
8717;BME280;4395;48.554;8.820;2023-04-19T00:41:33;96052.50;;;7.63;100.00
8717;BME280;4395;48.554;8.820;2023-04-19T00:43:39;96340.22;;;9.67;100.00
8717;BME280;4395;48.554;8.820;2023-04-19T00:45:42;96334.72;;;9.62;100.00
8717;BME280;4395;48.554;8.820;2023-04-19T00:47:45;96334.16;;;9.60;100.00
8717;BME280;4395;48.554;8.820;2023-04-19T00:49:48;96328.19;;;9.58;100.00
8717;BME280;4395;48.554;8.820;2023-04-19T00:51:52;96281.47;;;9.30;100.00
8717;BME280;4395;48.554;8.820;2023-04-19T00:53:55;96341.84;;;9.56;100.00
8717;BME280;4395;48.554;8.820;2023-04-19T00:56:01;96202.69;;;8.61;100.00
8717;BME280;4395;48.554;8.820;2023-04-19T00:58:07;96331.25;;;9.50;100.00
8717;BME280;4395;48.554;8.820;2023-04-19T01:00:12;96004.41;;;7.33;100.00
8717;BME280;4395;48.554;8.820;2023-04-19T01:02:16;95808.28;;;6.16;100.00
8717;BME280;4395;48.554;8.820;2023-04-19T01:04:18;96285.66;;;9.26;100.00
8717;BME280;4395;48.554;8.820;2023-04-19T01:06:23;96298.72;;;9.23;100.00
8717;BME280;4395;48.554;8.820;2023-04-19T01:08:28;96328.47;;;9.33;100.00
8717;BME280;4395;48.554;8.820;2023-04-19T01:10:31;96253.03;;;8.83;100.00
8717;BME280;4395;48.554;8.820;2023-04-19T01:12:34;95976.84;;;6.79;100.00
8717;BME280;4395;48.554;8.820;2023-04-19T01:14:37;96315.50;;;9.42;100.00
8717;BME280;4395;48.554;8.820;2023-04-19T01:16:41;96107.59;;;7.82;100.00
8717;BME280;4395;48.554;8.820;2023-04-19T01:18:44;96321.34;;;9.39;100.00
8717;BME280;4395;48.554;8.820;2023-04-19T01:20:47;96325.75;;;9.45;100.00
8717;BME280;4395;48.554;8.820;2023-04-19T01:22:51;96314.56;;;9.48;100.00
8717;BME280;4395;48.554;8.820;2023-04-19T01:24:54;96296.50;;;9.31;100.00
8717;BME280;4395;48.554;8.820;2023-04-19T01:26:57;96268.41;;;8.99;100.00
8717;BME280;4395;48.554;8.820;2023-04-19T01:29:02;96173.63;;;8.23;100.00
8717;BME280;4395;48.554;8.820;2023-04-19T01:31:04;96307.47;;;9.42;100.00
8717;BME280;4395;48.554;8.820;2023-04-19T01:33:08;96158.66;;;8.34;100.00
8717;BME280;4395;48.554;8.820;2023-04-19T01:35:10;96182.19;;;8.44;100.00
8717;BME280;4395;48.554;8.820;2023-04-19T01:37:13;96305.13;;;9.33;100.00
8717;BME280;4395;48.554;8.820;2023-04-19T01:39:17;96199.31;;;8.54;100.00
8717;BME280;4395;48.554;8.820;2023-04-19T01:41:20;96298.50;;;9.24;100.00
8717;BME280;4395;48.554;8.820;2023-04-19T01:43:27;96296.97;;;9.17;100.00
8717;BME280;4395;48.554;8.820;2023-04-19T01:45:30;96300.47;;;9.17;100.00
8717;BME280;4395;48.554;8.820;2023-04-19T01:47:34;96298.38;;;9.31;100.00
8717;BME280;4395;48.554;8.820;2023-04-19T01:49:37;96302.44;;;9.33;100.00
8717;BME280;4395;48.554;8.820;2023-04-19T01:51:40;96289.75;;;9.29;100.00
8717;BME280;4395;48.554;8.820;2023-04-19T01:53:42;96291.28;;;9.13;100.00
8717;BME280;4395;48.554;8.820;2023-04-19T01:55:47;96295.13;;;9.17;100.00
8717;BME280;4395;48.554;8.820;2023-04-19T01:57:49;96286.47;;;9.27;100.00
8717;BME280;4395;48.554;8.820;2023-04-19T01:59:56;96262.34;;;9.15;100.00
8717;BME280;4395;48.554;8.820;2023-04-19T02:01:59;96246.16;;;8.98;100.00
8717;BME280;4395;48.554;8.820;2023-04-19T02:04:02;96287.78;;;9.13;100.00
8717;BME280;4395;48.554;8.820;2023-04-19T02:06:09;96271.31;;;9.21;100.00
8717;BME280;4395;48.554;8.820;2023-04-19T02:08:13;96285.78;;;9.20;100.00
8717;BME280;4395;48.554;8.820;2023-04-19T02:10:15;96186.16;;;8.64;100.00
8717;BME280;4395;48.554;8.820;2023-04-19T02:12:20;96210.97;;;8.83;100.00
8717;BME280;4395;48.554;8.820;2023-04-19T02:14:26;96137.69;;;8.43;100.00
8717;BME280;4395;48.554;8.820;2023-04-19T02:16:29;96257.69;;;9.11;100.00
8717;BME280;4395;48.554;8.820;2023-04-19T02:18:35;96269.69;;;9.20;100.00
8717;BME280;4395;48.554;8.820;2023-04-19T02:20:39;96273.56;;;9.12;100.00
8717;BME280;4395;48.554;8.820;2023-04-19T02:22:44;96223.66;;;8.88;100.00
8717;BME280;4395;48.554;8.820;2023-04-19T02:24:49;95905.91;;;6.95;100.00
8717;BME280;4395;48.554;8.820;2023-04-19T02:26:52;96266.56;;;9.11;100.00
8717;BME280;4395;48.554;8.820;2023-04-19T02:28:56;96229.84;;;8.88;100.00
8717;BME280;4395;48.554;8.820;2023-04-19T02:31:03;96263.66;;;9.01;100.00
8717;BME280;4395;48.554;8.820;2023-04-19T02:33:08;96255.59;;;9.01;100.00
8717;BME280;4395;48.554;8.820;2023-04-19T02:35:11;96218.66;;;8.80;100.00
8717;BME280;4395;48.554;8.820;2023-04-19T02:37:14;96214.81;;;8.76;100.00
8717;BME280;4395;48.554;8.820;2023-04-19T02:39:18;96263.28;;;9.09;100.00
8717;BME280;4395;48.554;8.820;2023-04-19T02:41:21;96255.84;;;8.99;100.00
8717;BME280;4395;48.554;8.820;2023-04-19T02:43:24;96254.91;;;8.94;100.00
8717;BME280;4395;48.554;8.820;2023-04-19T02:45:28;96277.03;;;9.13;100.00
8717;BME280;4395;48.554;8.820;2023-04-19T02:47:32;96262.25;;;9.10;100.00
8717;BME280;4395;48.554;8.820;2023-04-19T02:49:34;96223.56;;;8.83;100.00
8717;BME280;4395;48.554;8.820;2023-04-19T02:51:43;96262.81;;;8.89;100.00
8717;BME280;4395;48.554;8.820;2023-04-19T02:53:47;96255.59;;;9.01;100.00
8717;BME280;4395;48.554;8.820;2023-04-19T02:55:50;96250.34;;;9.06;100.00
8717;BME280;4395;48.554;8.820;2023-04-19T02:57:54;96266.44;;;9.06;100.00
8717;BME280;4395;48.554;8.820;2023-04-19T02:59:57;96003.28;;;7.40;100.00
8717;BME280;4395;48.554;8.820;2023-04-19T03:02:01;96201.31;;;8.70;100.00
8717;BME280;4395;48.554;8.820;2023-04-19T03:04:04;96246.84;;;8.94;100.00
8717;BME280;4395;48.554;8.820;2023-04-19T03:06:08;96243.13;;;9.07;100.00
8717;BME280;4395;48.554;8.820;2023-04-19T03:08:11;96137.66;;;8.31;100.00
8717;BME280;4395;48.554;8.820;2023-04-19T03:10:15;96249.19;;;9.02;100.00
8717;BME280;4395;48.554;8.820;2023-04-19T03:12:18;96279.84;;;9.06;100.00
8717;BME280;4395;48.554;8.820;2023-04-19T03:14:20;96238.44;;;9.14;100.00
8717;BME280;4395;48.554;8.820;2023-04-19T03:16:24;95984.44;;;7.35;100.00
8717;BME280;4395;48.554;8.820;2023-04-19T03:18:29;96249.66;;;8.99;100.00
8717;BME280;4395;48.554;8.820;2023-04-19T03:20:32;96254.56;;;9.02;100.00
8717;BME280;4395;48.554;8.820;2023-04-19T03:22:35;96257.47;;;8.89;100.00
8717;BME280;4395;48.554;8.820;2023-04-19T03:24:38;96237.06;;;8.76;100.00
8717;BME280;4395;48.554;8.820;2023-04-19T03:26:51;96252.78;;;8.73;100.00
8717;BME280;4395;48.554;8.820;2023-04-19T03:28:58;96248.38;;;8.78;100.00
8717;BME280;4395;48.554;8.820;2023-04-19T03:31:15;96245.34;;;8.75;100.00
8717;BME280;4395;48.554;8.820;2023-04-19T03:33:21;96242.06;;;8.73;100.00
8717;BME280;4395;48.554;8.820;2023-04-19T03:35:25;96248.03;;;8.75;100.00
8717;BME280;4395;48.554;8.820;2023-04-19T03:37:33;96151.16;;;8.13;100.00
8717;BME280;4395;48.554;8.820;2023-04-19T03:39:37;96178.75;;;8.13;100.00
8717;BME280;4395;48.554;8.820;2023-04-19T03:41:43;96235.31;;;8.58;100.00
8717;BME280;4395;48.554;8.820;2023-04-19T03:43:53;96118.72;;;7.79;100.00
8717;BME280;4395;48.554;8.820;2023-04-19T03:45:58;96215.25;;;8.49;100.00
8717;BME280;4395;48.554;8.820;2023-04-19T03:48:01;96119.63;;;7.73;100.00
8717;BME280;4395;48.554;8.820;2023-04-19T03:50:05;96014.97;;;7.28;100.00
8717;BME280;4395;48.554;8.820;2023-04-19T03:52:10;96230.41;;;8.55;100.00
8717;BME280;4395;48.554;8.820;2023-04-19T03:54:13;96180.66;;;8.36;100.00
8717;BME280;4395;48.554;8.820;2023-04-19T03:56:17;96231.47;;;8.66;100.00
8717;BME280;4395;48.554;8.820;2023-04-19T03:58:21;96229.16;;;8.69;100.00
8717;BME280;4395;48.554;8.820;2023-04-19T04:00:31;96223.19;;;8.56;100.00
8717;BME280;4395;48.554;8.820;2023-04-19T04:02:36;96036.78;;;7.13;100.00
8717;BME280;4395;48.554;8.820;2023-04-19T04:04:40;96220.53;;;8.67;100.00
8717;BME280;4395;48.554;8.820;2023-04-19T04:06:43;96140.91;;;8.10;100.00
8717;BME280;4395;48.554;8.820;2023-04-19T04:08:50;96235.66;;;8.62;100.00
8717;BME280;4395;48.554;8.820;2023-04-19T04:10:53;96121.25;;;7.74;100.00
8717;BME280;4395;48.554;8.820;2023-04-19T04:12:56;96234.53;;;8.28;100.00
8717;BME280;4395;48.554;8.820;2023-04-19T04:15:10;96060.13;;;7.06;100.00
8717;BME280;4395;48.554;8.820;2023-04-19T04:17:19;96120.00;;;7.47;100.00
8717;BME280;4395;48.554;8.820;2023-04-19T04:19:22;96227.63;;;8.09;100.00
8717;BME280;4395;48.554;8.820;2023-04-19T04:21:26;96233.69;;;8.16;100.00
8717;BME280;4395;48.554;8.820;2023-04-19T04:23:32;96197.34;;;7.78;100.00
8717;BME280;4395;48.554;8.820;2023-04-19T04:25:39;96214.53;;;7.89;100.00
8717;BME280;4395;48.554;8.820;2023-04-19T04:27:46;96225.00;;;7.90;100.00
8717;BME280;4395;48.554;8.820;2023-04-19T04:29:52;96228.38;;;7.97;100.00
8717;BME280;4395;48.554;8.820;2023-04-19T04:31:57;96228.84;;;7.94;100.00
8717;BME280;4395;48.554;8.820;2023-04-19T04:34:07;96228.66;;;8.07;100.00
8717;BME280;4395;48.554;8.820;2023-04-19T04:36:20;96229.25;;;8.10;100.00
8717;BME280;4395;48.554;8.820;2023-04-19T04:38:24;96188.72;;;7.76;100.00
8717;BME280;4395;48.554;8.820;2023-04-19T04:40:28;96236.38;;;8.16;100.00
8717;BME280;4395;48.554;8.820;2023-04-19T04:42:32;96228.28;;;8.04;100.00
8717;BME280;4395;48.554;8.820;2023-04-19T04:44:37;96230.47;;;7.95;100.00
8717;BME280;4395;48.554;8.820;2023-04-19T04:46:42;96229.63;;;7.83;100.00
8717;BME280;4395;48.554;8.820;2023-04-19T04:48:48;96225.72;;;7.79;100.00
8717;BME280;4395;48.554;8.820;2023-04-19T04:50:53;96231.13;;;7.61;100.00
8717;BME280;4395;48.554;8.820;2023-04-19T04:52:55;96234.84;;;7.60;100.00
8717;BME280;4395;48.554;8.820;2023-04-19T04:55:03;96232.75;;;7.62;100.00
8717;BME280;4395;48.554;8.820;2023-04-19T04:57:09;96169.66;;;7.24;100.00
8717;BME280;4395;48.554;8.820;2023-04-19T04:59:13;96229.63;;;7.65;100.00
8717;BME280;4395;48.554;8.820;2023-04-19T05:01:18;96233.88;;;7.54;100.00
8717;BME280;4395;48.554;8.820;2023-04-19T05:03:22;96232.91;;;7.67;100.00
8717;BME280;4395;48.554;8.820;2023-04-19T05:05:30;96230.28;;;7.79;100.00
8717;BME280;4395;48.554;8.820;2023-04-19T05:07:33;96231.09;;;7.79;100.00
8717;BME280;4395;48.554;8.820;2023-04-19T05:09:36;96225.72;;;7.79;100.00
8717;BME280;4395;48.554;8.820;2023-04-19T05:11:39;96233.03;;;7.72;100.00
8717;BME280;4395;48.554;8.820;2023-04-19T05:13:44;96235.25;;;7.75;100.00
8717;BME280;4395;48.554;8.820;2023-04-19T05:15:49;96235.72;;;7.72;100.00
8717;BME280;4395;48.554;8.820;2023-04-19T05:17:52;96241.38;;;7.82;100.00
8717;BME280;4395;48.554;8.820;2023-04-19T05:19:56;96191.00;;;7.61;100.00
8717;BME280;4395;48.554;8.820;2023-04-19T05:21:58;96239.69;;;7.99;100.00
8717;BME280;4395;48.554;8.820;2023-04-19T05:24:02;96174.72;;;7.62;100.00
8717;BME280;4395;48.554;8.820;2023-04-19T05:26:07;96235.47;;;7.92;100.00
8717;BME280;4395;48.554;8.820;2023-04-19T05:28:13;96235.09;;;7.88;100.00
8717;BME280;4395;48.554;8.820;2023-04-19T05:30:31;96236.66;;;7.96;100.00
8717;BME280;4395;48.554;8.820;2023-04-19T05:32:36;96240.53;;;8.12;100.00
8717;BME280;4395;48.554;8.820;2023-04-19T05:34:39;96248.47;;;8.18;100.00
8717;BME280;4395;48.554;8.820;2023-04-19T05:36:45;96241.44;;;8.05;100.00
8717;BME280;4395;48.554;8.820;2023-04-19T05:38:49;96235.38;;;7.98;100.00
8717;BME280;4395;48.554;8.820;2023-04-19T05:40:53;96247.53;;;8.13;100.00
8717;BME280;4395;48.554;8.820;2023-04-19T05:42:56;96235.88;;;8.37;100.00
8717;BME280;4395;48.554;8.820;2023-04-19T05:44:59;96241.53;;;8.29;100.00
8717;BME280;4395;48.554;8.820;2023-04-19T05:47:05;96273.44;;;8.00;100.00
8717;BME280;4395;48.554;8.820;2023-04-19T05:49:29;96245.19;;;8.04;100.00
8717;BME280;4395;48.554;8.820;2023-04-19T05:51:49;96248.25;;;8.20;100.00
8717;BME280;4395;48.554;8.820;2023-04-19T05:54:17;96254.31;;;8.27;100.00
8717;BME280;4395;48.554;8.820;2023-04-19T05:56:22;96244.13;;;8.05;100.00
8717;BME280;4395;48.554;8.820;2023-04-19T05:58:25;96243.00;;;7.83;100.00
8717;BME280;4395;48.554;8.820;2023-04-19T06:00:28;96248.25;;;7.90;100.00
8717;BME280;4395;48.554;8.820;2023-04-19T06:02:39;96250.72;;;7.91;100.00
8717;BME280;4395;48.554;8.820;2023-04-19T06:04:47;96254.31;;;8.27;100.00
8717;BME280;4395;48.554;8.820;2023-04-19T06:06:51;96254.69;;;8.00;100.00
8717;BME280;4395;48.554;8.820;2023-04-19T06:08:53;96261.50;;;8.15;100.00
8717;BME280;4395;48.554;8.820;2023-04-19T06:10:56;96265.13;;;8.20;100.00
8717;BME280;4395;48.554;8.820;2023-04-19T06:13:08;96148.66;;;7.58;100.00
8717;BME280;4395;48.554;8.820;2023-04-19T06:15:11;96271.88;;;8.23;100.00
8717;BME280;4395;48.554;8.820;2023-04-19T06:17:14;96231.91;;;8.10;100.00
8717;BME280;4395;48.554;8.820;2023-04-19T06:19:17;96266.22;;;8.01;100.00
8717;BME280;4395;48.554;8.820;2023-04-19T06:21:23;96255.25;;;7.91;100.00
8717;BME280;4395;48.554;8.820;2023-04-19T06:23:26;96259.69;;;7.79;100.00
8717;BME280;4395;48.554;8.820;2023-04-19T06:25:29;96183.34;;;7.16;100.00
8717;BME280;4395;48.554;8.820;2023-04-19T06:27:31;96129.75;;;6.93;100.00
8717;BME280;4395;48.554;8.820;2023-04-19T06:29:34;96180.06;;;7.14;100.00
8717;BME280;4395;48.554;8.820;2023-04-19T06:31:37;96257.16;;;8.02;100.00
8717;BME280;4395;48.554;8.820;2023-04-19T06:33:40;96264.31;;;8.20;100.00
8717;BME280;4395;48.554;8.820;2023-04-19T06:35:43;96159.75;;;7.43;100.00
8717;BME280;4395;48.554;8.820;2023-04-19T06:37:47;96107.72;;;7.27;100.00
8717;BME280;4395;48.554;8.820;2023-04-19T06:39:52;96205.94;;;7.98;100.00
8717;BME280;4395;48.554;8.820;2023-04-19T06:41:55;96272.47;;;8.55;100.00
8717;BME280;4395;48.554;8.820;2023-04-19T06:43:58;95927.09;;;6.66;100.00
8717;BME280;4395;48.554;8.820;2023-04-19T06:46:02;96274.94;;;8.68;100.00
8717;BME280;4395;48.554;8.820;2023-04-19T06:48:05;96280.28;;;8.80;100.00
8717;BME280;4395;48.554;8.820;2023-04-19T06:50:09;96272.94;;;8.75;100.00
8717;BME280;4395;48.554;8.820;2023-04-19T06:52:12;96274.47;;;8.94;100.00
8717;BME280;4395;48.554;8.820;2023-04-19T06:54:16;96269.13;;;8.83;100.00
8717;BME280;4395;48.554;8.820;2023-04-19T06:56:40;96256.88;;;8.87;100.00
8717;BME280;4395;48.554;8.820;2023-04-19T06:58:46;96267.59;;;9.22;100.00
8717;BME280;4395;48.554;8.820;2023-04-19T07:00:48;96255.25;;;9.09;100.00
8717;BME280;4395;48.554;8.820;2023-04-19T07:02:52;96266.31;;;9.01;100.00
8717;BME280;4395;48.554;8.820;2023-04-19T07:04:55;96270.16;;;9.17;100.00
8717;BME280;4395;48.554;8.820;2023-04-19T07:06:58;96233.09;;;8.90;100.00
8717;BME280;4395;48.554;8.820;2023-04-19T07:09:01;95998.16;;;7.39;100.00
8717;BME280;4395;48.554;8.820;2023-04-19T07:11:05;96258.97;;;8.96;100.00
8717;BME280;4395;48.554;8.820;2023-04-19T07:13:09;96249.28;;;9.30;100.00
8717;BME280;4395;48.554;8.820;2023-04-19T07:15:12;96253.09;;;9.46;100.00
8717;BME280;4395;48.554;8.820;2023-04-19T07:17:15;96129.19;;;8.57;100.00
8717;BME280;4395;48.554;8.820;2023-04-19T07:19:19;96254.88;;;9.17;100.00
8717;BME280;4395;48.554;8.820;2023-04-19T07:21:23;96256.38;;;9.37;100.00
8717;BME280;4395;48.554;8.820;2023-04-19T07:23:29;96252.75;;;9.43;100.00
8717;BME280;4395;48.554;8.820;2023-04-19T07:25:32;96252.25;;;9.57;100.00
8717;BME280;4395;48.554;8.820;2023-04-19T07:27:36;96233.13;;;9.54;100.00
8717;BME280;4395;48.554;8.820;2023-04-19T07:29:39;96252.22;;;9.69;100.00
8717;BME280;4395;48.554;8.820;2023-04-19T07:31:42;96197.03;;;9.33;100.00
8717;BME280;4395;48.554;8.820;2023-04-19T07:33:45;96262.22;;;9.22;100.00
8717;BME280;4395;48.554;8.820;2023-04-19T07:35:48;96262.81;;;9.24;100.00
8717;BME280;4395;48.554;8.820;2023-04-19T07:37:51;96175.06;;;8.96;100.00
8717;BME280;4395;48.554;8.820;2023-04-19T07:39:54;96254.34;;;9.67;100.00
8717;BME280;4395;48.554;8.820;2023-04-19T07:41:57;96249.06;;;9.72;100.00
8717;BME280;4395;48.554;8.820;2023-04-19T07:44:02;96249.31;;;9.71;100.00
8717;BME280;4395;48.554;8.820;2023-04-19T07:46:08;96252.88;;;9.48;100.00
8717;BME280;4395;48.554;8.820;2023-04-19T07:48:11;96253.63;;;9.72;100.00
8717;BME280;4395;48.554;8.820;2023-04-19T07:50:14;96248.13;;;10.07;100.00
8717;BME280;4395;48.554;8.820;2023-04-19T07:52:17;96107.94;;;9.31;100.00
8717;BME280;4395;48.554;8.820;2023-04-19T07:54:19;96249.47;;;10.21;100.00
8717;BME280;4395;48.554;8.820;2023-04-19T07:56:22;96248.94;;;10.07;100.00
8717;BME280;4395;48.554;8.820;2023-04-19T07:58:26;96255.91;;;10.20;100.00
8717;BME280;4395;48.554;8.820;2023-04-19T08:00:31;96250.72;;;10.02;100.00
8717;BME280;4395;48.554;8.820;2023-04-19T08:02:35;96242.56;;;9.96;100.00
8717;BME280;4395;48.554;8.820;2023-04-19T08:04:38;96250.53;;;10.20;100.00
8717;BME280;4395;48.554;8.820;2023-04-19T08:06:41;96250.31;;;10.38;100.00
8717;BME280;4395;48.554;8.820;2023-04-19T08:08:44;96223.19;;;10.23;100.00
8717;BME280;4395;48.554;8.820;2023-04-19T08:10:52;96237.19;;;10.53;100.00
8717;BME280;4395;48.554;8.820;2023-04-19T08:12:55;96243.84;;;10.51;100.00
8717;BME280;4395;48.554;8.820;2023-04-19T08:15:07;96117.25;;;10.02;100.00
8717;BME280;4395;48.554;8.820;2023-04-19T08:17:31;96241.81;;;10.91;100.00
8717;BME280;4395;48.554;8.820;2023-04-19T08:19:35;96233.19;;;10.73;100.00
8717;BME280;4395;48.554;8.820;2023-04-19T08:21:38;96083.81;;;9.76;100.00
8717;BME280;4395;48.554;8.820;2023-04-19T08:23:42;96228.38;;;10.41;100.00
8717;BME280;4395;48.554;8.820;2023-04-19T08:25:49;96241.91;;;10.46;100.00
8717;BME280;4395;48.554;8.820;2023-04-19T08:27:52;96233.34;;;10.83;100.00
8717;BME280;4395;48.554;8.820;2023-04-19T08:29:55;96233.91;;;10.85;100.00
8717;BME280;4395;48.554;8.820;2023-04-19T08:31:57;96229.34;;;10.85;100.00
8717;BME280;4395;48.554;8.820;2023-04-19T08:34:02;96237.22;;;11.09;100.00
8717;BME280;4395;48.554;8.820;2023-04-19T08:36:06;96227.19;;;11.43;100.00
8717;BME280;4395;48.554;8.820;2023-04-19T08:38:08;96234.97;;;11.61;100.00
8717;BME280;4395;48.554;8.820;2023-04-19T08:40:11;96228.88;;;11.71;100.00
8717;BME280;4395;48.554;8.820;2023-04-19T08:42:14;96232.84;;;11.85;100.00
8717;BME280;4395;48.554;8.820;2023-04-19T08:44:36;96225.41;;;11.92;100.00
8717;BME280;4395;48.554;8.820;2023-04-19T08:47:01;96223.13;;;12.06;100.00
8717;BME280;4395;48.554;8.820;2023-04-19T08:49:05;96225.31;;;12.09;100.00
8717;BME280;4395;48.554;8.820;2023-04-19T08:51:11;96139.78;;;11.23;100.00
8717;BME280;4395;48.554;8.820;2023-04-19T08:53:14;96227.31;;;11.75;100.00
8717;BME280;4395;48.554;8.820;2023-04-19T08:55:27;96228.78;;;11.82;100.00
8717;BME280;4395;48.554;8.820;2023-04-19T08:57:30;96161.53;;;11.44;100.00
8717;BME280;4395;48.554;8.820;2023-04-19T08:59:33;96007.91;;;10.14;100.00
8717;BME280;4395;48.554;8.820;2023-04-19T09:01:36;96221.00;;;11.64;100.00
8717;BME280;4395;48.554;8.820;2023-04-19T09:03:42;96223.69;;;12.08;100.00
8717;BME280;4395;48.554;8.820;2023-04-19T09:06:01;96228.72;;;12.26;100.00
8717;BME280;4395;48.554;8.820;2023-04-19T09:08:23;96220.16;;;12.34;100.00
8717;BME280;4395;48.554;8.820;2023-04-19T09:10:27;96220.69;;;12.31;100.00
8717;BME280;4395;48.554;8.820;2023-04-19T09:12:30;96217.69;;;12.01;100.00
8717;BME280;4395;48.554;8.820;2023-04-19T09:14:33;96214.94;;;12.22;100.00
8717;BME280;4395;48.554;8.820;2023-04-19T09:16:35;96218.03;;;12.36;100.00
8717;BME280;4395;48.554;8.820;2023-04-19T09:18:52;96204.91;;;12.45;100.00
8717;BME280;4395;48.554;8.820;2023-04-19T09:21:26;96185.69;;;11.82;100.00
8717;BME280;4395;48.554;8.820;2023-04-19T09:23:29;96203.34;;;11.51;100.00
8717;BME280;4395;48.554;8.820;2023-04-19T09:25:32;96200.47;;;11.58;100.00
8717;BME280;4395;48.554;8.820;2023-04-19T09:28:07;96195.09;;;11.80;100.00
8717;BME280;4395;48.554;8.820;2023-04-19T09:30:11;96205.88;;;12.07;100.00
8717;BME280;4395;48.554;8.820;2023-04-19T09:32:40;96032.56;;;11.10;100.00
8717;BME280;4395;48.554;8.820;2023-04-19T09:34:51;96209.69;;;12.11;100.00
8717;BME280;4395;48.554;8.820;2023-04-19T09:36:56;96128.94;;;11.89;100.00
8717;BME280;4395;48.554;8.820;2023-04-19T09:39:14;96196.47;;;12.36;100.00
8717;BME280;4395;48.554;8.820;2023-04-19T09:41:30;96162.63;;;11.91;100.00
8717;BME280;4395;48.554;8.820;2023-04-19T09:43:34;96100.00;;;11.52;100.00
8717;BME280;4395;48.554;8.820;2023-04-19T09:45:56;96198.38;;;12.09;100.00
8717;BME280;4395;48.554;8.820;2023-04-19T09:48:00;96114.41;;;11.41;100.00
8717;BME280;4395;48.554;8.820;2023-04-19T09:50:05;96185.44;;;11.62;100.00
8717;BME280;4395;48.554;8.820;2023-04-19T09:52:24;95989.13;;;10.53;100.00
8717;BME280;4395;48.554;8.820;2023-04-19T09:54:26;96178.63;;;12.30;100.00
8717;BME280;4395;48.554;8.820;2023-04-19T09:56:30;96171.09;;;12.32;100.00
8717;BME280;4395;48.554;8.820;2023-04-19T09:58:33;96184.28;;;12.02;100.00
8717;BME280;4395;48.554;8.820;2023-04-19T10:00:52;96160.28;;;11.51;100.00
8717;BME280;4395;48.554;8.820;2023-04-19T10:03:11;96168.53;;;11.67;100.00
8717;BME280;4395;48.554;8.820;2023-04-19T10:05:15;96162.88;;;11.90;100.00
8717;BME280;4395;48.554;8.820;2023-04-19T10:07:23;96165.06;;;11.93;100.00
8717;BME280;4395;48.554;8.820;2023-04-19T10:09:33;96157.78;;;11.67;100.00
8717;BME280;4395;48.554;8.820;2023-04-19T10:11:52;95932.13;;;10.73;100.00
8717;BME280;4395;48.554;8.820;2023-04-19T10:14:13;96165.88;;;11.94;100.00
8717;BME280;4395;48.554;8.820;2023-04-19T10:16:16;96155.59;;;12.49;100.00
8717;BME280;4395;48.554;8.820;2023-04-19T10:18:21;96119.47;;;12.93;100.00
8717;BME280;4395;48.554;8.820;2023-04-19T10:20:31;96128.31;;;14.23;95.63
8717;BME280;4395;48.554;8.820;2023-04-19T10:22:36;96144.50;;;14.99;87.54
8717;BME280;4395;48.554;8.820;2023-04-19T10:25:09;96143.00;;;15.42;83.00
8717;BME280;4395;48.554;8.820;2023-04-19T10:27:13;96153.41;;;15.05;81.48
8717;BME280;4395;48.554;8.820;2023-04-19T10:29:56;96151.44;;;15.36;80.83
8717;BME280;4395;48.554;8.820;2023-04-19T10:32:03;96152.25;;;15.36;76.62
8717;BME280;4395;48.554;8.820;2023-04-19T10:34:06;96148.94;;;15.50;80.30
8717;BME280;4395;48.554;8.820;2023-04-19T10:36:13;96130.25;;;15.48;77.11
8717;BME280;4395;48.554;8.820;2023-04-19T10:38:18;96147.44;;;15.08;77.96
8717;BME280;4395;48.554;8.820;2023-04-19T10:40:55;96141.81;;;14.89;79.58
8717;BME280;4395;48.554;8.820;2023-04-19T10:43:16;96130.13;;;15.09;80.51
8717;BME280;4395;48.554;8.820;2023-04-19T10:45:31;95884.91;;;13.18;81.04
8717;BME280;4395;48.554;8.820;2023-04-19T10:47:42;96092.28;;;14.89;78.09
8717;BME280;4395;48.554;8.820;2023-04-19T10:49:45;96125.03;;;14.87;77.81
8717;BME280;4395;48.554;8.820;2023-04-19T10:51:49;96107.16;;;14.96;76.22
8717;BME280;4395;48.554;8.820;2023-04-19T10:53:59;96108.84;;;14.62;76.35
8717;BME280;4395;48.554;8.820;2023-04-19T10:56:02;96050.97;;;14.63;75.80
8717;BME280;4395;48.554;8.820;2023-04-19T10:58:06;96107.59;;;15.29;72.31
8717;BME280;4395;48.554;8.820;2023-04-19T11:00:17;96112.56;;;15.01;73.97
8717;BME280;4395;48.554;8.820;2023-04-19T11:02:27;96100.84;;;15.21;72.60
8717;BME280;4395;48.554;8.820;2023-04-19T11:04:57;96106.03;;;15.07;73.35
8717;BME280;4395;48.554;8.820;2023-04-19T11:07:02;96101.16;;;15.15;74.53
8717;BME280;4395;48.554;8.820;2023-04-19T11:09:06;96098.50;;;14.94;74.03
8717;BME280;4395;48.554;8.820;2023-04-19T11:11:11;96100.09;;;15.00;74.80
8717;BME280;4395;48.554;8.820;2023-04-19T11:13:16;96085.59;;;14.35;80.15
8717;BME280;4395;48.554;8.820;2023-04-19T11:15:21;96090.16;;;14.70;78.35
8717;BME280;4395;48.554;8.820;2023-04-19T11:17:28;96067.75;;;14.50;78.76
8717;BME280;4395;48.554;8.820;2023-04-19T11:19:32;96087.75;;;14.59;81.45
8717;BME280;4395;48.554;8.820;2023-04-19T11:21:38;96084.97;;;13.47;88.71
8717;BME280;4395;48.554;8.820;2023-04-19T11:23:41;96080.56;;;13.26;92.31